createdAt,value
2023-05-04T00:00:39.121Z,7.93
2023-05-04T00:01:39.249Z,7.92
2023-05-04T00:02:39.415Z,7.89
2023-05-04T00:03:39.191Z,7.87
2023-05-04T00:04:39.288Z,7.85
2023-05-04T00:05:39.239Z,7.84
2023-05-04T00:06:39.113Z,7.82
2023-05-04T00:07:39.198Z,7.79
2023-05-04T00:08:39.133Z,7.75
2023-05-04T00:09:39.160Z,7.75
2023-05-04T00:10:39.085Z,7.74
2023-05-04T00:11:39.110Z,7.72
2023-05-04T00:12:39.167Z,7.71
2023-05-04T00:13:38.954Z,7.69
2023-05-04T00:14:39.372Z,7.67
2023-05-04T00:15:39.096Z,7.63
2023-05-04T00:16:39.016Z,7.62
2023-05-04T00:17:39.011Z,7.62
2023-05-04T00:18:39.040Z,7.60
2023-05-04T00:19:38.942Z,7.59
2023-05-04T00:20:38.983Z,7.56
2023-05-04T00:21:38.933Z,7.55
2023-05-04T00:22:39.086Z,7.52
2023-05-04T00:23:38.890Z,7.52
2023-05-04T00:24:38.922Z,7.52
2023-05-04T00:25:39.012Z,7.49
2023-05-04T00:26:38.920Z,7.49
2023-05-04T00:27:38.858Z,7.47
2023-05-04T00:28:38.847Z,7.45
2023-05-04T00:29:38.851Z,7.45
2023-05-04T00:30:38.859Z,7.42
2023-05-04T00:31:38.999Z,7.41
2023-05-04T00:32:38.928Z,7.44
2023-05-04T00:33:38.798Z,7.42
2023-05-04T00:34:39.017Z,7.42
2023-05-04T00:35:38.994Z,7.44
2023-05-04T00:36:38.851Z,7.45
2023-05-04T00:37:38.708Z,7.45
2023-05-04T00:38:38.740Z,7.47
2023-05-04T00:39:38.898Z,7.50
2023-05-04T00:40:38.685Z,7.47
2023-05-04T00:41:38.734Z,7.49
2023-05-04T00:42:38.693Z,7.49
2023-05-04T00:43:38.815Z,7.47
2023-05-04T00:44:38.710Z,7.49
2023-05-04T00:45:38.642Z,7.49
2023-05-04T00:46:38.752Z,7.49
2023-05-04T00:47:38.808Z,7.47
2023-05-04T00:48:38.679Z,7.49
2023-05-04T00:49:38.804Z,7.49
2023-05-04T00:50:38.792Z,7.45
2023-05-04T00:51:38.814Z,7.45
2023-05-04T00:52:38.598Z,7.45
2023-05-04T00:53:38.579Z,7.47
2023-05-04T00:54:38.568Z,7.49
2023-05-04T00:55:38.571Z,7.47
2023-05-04T00:56:38.591Z,7.49
2023-05-04T00:57:38.574Z,7.49
2023-05-04T00:58:38.553Z,7.52
2023-05-04T00:59:38.623Z,7.52
2023-05-04T01:00:38.507Z,7.52
2023-05-04T01:01:38.738Z,7.52
2023-05-04T01:02:38.568Z,7.52
2023-05-04T01:03:38.603Z,7.53
2023-05-04T01:04:38.458Z,7.50
2023-05-04T01:05:38.477Z,7.49
2023-05-04T01:06:38.747Z,7.47
2023-05-04T01:07:38.962Z,7.45
2023-05-04T01:08:38.734Z,7.45
2023-05-04T01:09:38.464Z,7.41
2023-05-04T01:10:38.403Z,7.41
2023-05-04T01:11:38.568Z,7.40
2023-05-04T01:12:38.408Z,7.40
2023-05-04T01:13:38.416Z,7.38
2023-05-04T01:14:38.387Z,7.37
2023-05-04T01:15:38.561Z,7.38
2023-05-04T01:16:38.463Z,7.35
2023-05-04T01:17:38.377Z,7.34
2023-05-04T01:18:38.357Z,7.32
2023-05-04T01:19:38.340Z,7.34
2023-05-04T01:20:38.396Z,7.31
2023-05-04T01:21:38.290Z,7.31
2023-05-04T01:22:38.570Z,7.29
2023-05-04T01:23:38.313Z,7.29
2023-05-04T01:24:38.311Z,7.27
2023-05-04T01:25:38.259Z,7.27
2023-05-04T01:26:38.353Z,7.24
2023-05-04T01:27:38.289Z,7.24
2023-05-04T01:28:38.202Z,7.23
2023-05-04T01:29:38.209Z,7.22
2023-05-04T01:30:38.261Z,7.20
2023-05-04T01:31:38.225Z,7.20
2023-05-04T01:32:38.683Z,7.19
2023-05-04T01:33:38.167Z,7.19
2023-05-04T01:34:38.328Z,7.17
2023-05-04T01:35:38.262Z,7.19
2023-05-04T01:36:38.233Z,7.17
2023-05-04T01:37:38.160Z,7.17
2023-05-04T01:38:38.305Z,7.17
2023-05-04T01:39:38.196Z,7.16
2023-05-04T01:40:38.082Z,7.16
2023-05-04T01:41:38.104Z,7.15
2023-05-04T01:42:38.100Z,7.12
2023-05-04T01:43:38.058Z,7.08
2023-05-04T01:44:38.130Z,7.08
2023-05-04T01:45:38.094Z,7.08
2023-05-04T01:46:38.175Z,7.09
2023-05-04T01:47:38.339Z,7.08
2023-05-04T01:48:38.133Z,7.08
2023-05-04T01:49:38.010Z,7.07
2023-05-04T01:50:38.123Z,7.07
2023-05-04T01:51:38.205Z,7.07
2023-05-04T01:52:38.208Z,7.07
2023-05-04T01:53:37.977Z,7.05
2023-05-04T01:54:38.164Z,7.05
2023-05-04T01:55:38.061Z,7.07
2023-05-04T01:56:38.093Z,7.04
2023-05-04T01:57:37.966Z,7.04
2023-05-04T01:58:37.917Z,7.04
2023-05-04T01:59:38.080Z,7.04
2023-05-04T02:00:37.912Z,7.05
2023-05-04T02:01:37.981Z,7.02
2023-05-04T02:02:38.029Z,7.02
2023-05-04T02:03:38.013Z,7.04
2023-05-04T02:04:37.868Z,7.04
2023-05-04T02:05:38.051Z,7.04
2023-05-04T02:06:37.859Z,7.02
2023-05-04T02:07:37.893Z,7.02
2023-05-04T02:08:38.042Z,7.01
2023-05-04T02:09:37.856Z,7.01
2023-05-04T02:10:37.833Z,6.99
2023-05-04T02:11:37.858Z,6.98
2023-05-04T02:12:37.838Z,6.97
2023-05-04T02:13:37.780Z,6.94
2023-05-04T02:14:37.816Z,6.91
2023-05-04T02:15:37.819Z,6.90
2023-05-04T02:16:37.906Z,6.87
2023-05-04T02:17:37.817Z,6.89
2023-05-04T02:18:37.751Z,6.89
2023-05-04T02:19:37.774Z,6.87
2023-05-04T02:20:37.773Z,6.87
2023-05-04T02:21:37.710Z,6.86
2023-05-04T02:22:37.696Z,6.83
2023-05-04T02:23:37.871Z,6.83
2023-05-04T02:24:37.700Z,6.80
2023-05-04T02:25:37.661Z,6.77
2023-05-04T02:26:37.678Z,6.77
2023-05-04T02:27:37.724Z,6.76
2023-05-04T02:28:37.658Z,6.77
2023-05-04T02:29:37.644Z,6.73
2023-05-04T02:30:37.632Z,6.73
2023-05-04T02:31:37.923Z,6.71
2023-05-04T02:32:37.969Z,6.69
2023-05-04T02:33:37.605Z,6.69
2023-05-04T02:34:37.656Z,6.68
2023-05-04T02:35:37.587Z,6.65
2023-05-04T02:36:37.569Z,6.63
2023-05-04T02:37:37.693Z,6.63
2023-05-04T02:38:37.613Z,6.62
2023-05-04T02:39:37.533Z,6.59
2023-05-04T02:40:37.523Z,6.56
2023-05-04T02:41:37.608Z,6.54
2023-05-04T02:42:37.528Z,6.53
2023-05-04T02:43:37.573Z,6.53
2023-05-04T02:44:37.549Z,6.51
2023-05-04T02:45:37.551Z,6.50
2023-05-04T02:46:37.487Z,6.53
2023-05-04T02:47:37.506Z,6.51
2023-05-04T02:48:37.444Z,6.50
2023-05-04T02:49:37.477Z,6.48
2023-05-04T02:50:37.480Z,6.48
2023-05-04T02:51:37.580Z,6.46
2023-05-04T02:52:37.658Z,6.47
2023-05-04T02:53:37.454Z,6.46
2023-05-04T02:54:37.386Z,6.47
2023-05-04T02:55:37.415Z,6.44
2023-05-04T02:56:37.407Z,6.40
2023-05-04T02:57:37.580Z,6.40
2023-05-04T02:58:37.350Z,6.38
2023-05-04T02:59:37.379Z,6.38
2023-05-04T03:00:37.496Z,6.35
2023-05-04T03:01:37.590Z,6.35
2023-05-04T03:02:37.380Z,6.36
2023-05-04T03:03:37.482Z,6.32
2023-05-04T03:04:37.388Z,6.29
2023-05-04T03:05:37.503Z,6.32
2023-05-04T03:06:37.426Z,6.29
2023-05-04T03:07:37.386Z,6.28
2023-05-04T03:08:37.413Z,6.29
2023-05-04T03:09:37.241Z,6.29
2023-05-04T03:10:37.294Z,6.32
2023-05-04T03:11:37.402Z,6.30
2023-05-04T03:12:37.304Z,6.30
2023-05-04T03:13:37.244Z,6.30
2023-05-04T03:14:37.252Z,6.29
2023-05-04T03:15:37.362Z,6.29
2023-05-04T03:16:37.267Z,6.29
2023-05-04T03:17:37.264Z,6.26
2023-05-04T03:19:46.662Z,6.25
2023-05-04T03:20:47.661Z,6.22
2023-05-04T03:21:47.589Z,6.21
2023-05-04T03:22:47.591Z,6.22
2023-05-04T03:23:47.704Z,6.21
2023-05-04T03:24:47.558Z,6.21
2023-05-04T03:25:47.579Z,6.21
2023-05-04T03:26:47.536Z,6.21
2023-05-04T03:27:47.588Z,6.21
2023-05-04T03:28:47.536Z,6.21
2023-05-04T03:29:47.540Z,6.19
2023-05-04T03:30:47.533Z,6.18
2023-05-04T03:31:47.579Z,6.16
2023-05-04T03:32:47.519Z,6.16
2023-05-04T03:33:47.493Z,6.18
2023-05-04T03:34:47.655Z,6.16
2023-05-04T03:35:47.701Z,6.14
2023-05-04T03:36:47.607Z,6.14
2023-05-04T03:37:47.509Z,6.13
2023-05-04T03:38:47.414Z,6.14
2023-05-04T03:39:47.504Z,6.11
2023-05-04T03:40:47.641Z,6.09
2023-05-04T03:41:47.522Z,6.07
2023-05-04T03:42:47.393Z,6.06
2023-05-04T03:43:47.354Z,6.03
2023-05-04T03:44:47.330Z,6.01
2023-05-04T03:45:47.348Z,6.03
2023-05-04T03:46:47.376Z,6.03
2023-05-04T03:47:47.658Z,5.98
2023-05-04T03:48:47.518Z,6.00
2023-05-04T03:49:47.525Z,6.01
2023-05-04T03:50:47.340Z,6.01
2023-05-04T03:51:47.311Z,6.01
2023-05-04T03:52:47.268Z,6.00
2023-05-04T03:53:47.290Z,5.98
2023-05-04T03:54:47.365Z,6.00
2023-05-04T03:55:47.273Z,6.00
2023-05-04T03:56:47.210Z,5.98
2023-05-04T03:57:47.224Z,5.98
2023-05-04T03:58:47.276Z,5.96
2023-05-04T03:59:47.191Z,5.96
2023-05-04T04:00:47.239Z,5.96
2023-05-04T04:01:47.141Z,5.96
2023-05-04T04:02:47.428Z,5.95
2023-05-04T04:03:47.309Z,5.95
2023-05-04T04:04:47.517Z,5.95
2023-05-04T04:05:47.220Z,5.95
2023-05-04T04:06:48.497Z,5.93
2023-05-04T04:07:47.140Z,5.96
2023-05-04T04:08:47.192Z,5.93
2023-05-04T04:09:47.104Z,5.95
2023-05-04T04:10:47.434Z,5.93
2023-05-04T04:11:47.286Z,5.93
2023-05-04T04:12:47.276Z,5.95
2023-05-04T04:13:47.094Z,5.93
2023-05-04T04:14:47.067Z,5.93
2023-05-04T04:15:47.061Z,5.95
2023-05-04T04:16:47.104Z,5.95
2023-05-04T04:17:47.115Z,5.95
2023-05-04T04:18:47.426Z,5.96
2023-05-04T04:19:47.042Z,5.98
2023-05-04T04:20:46.996Z,5.98
2023-05-04T04:21:47.016Z,5.96
2023-05-04T04:22:47.274Z,5.96
2023-05-04T04:23:48.675Z,5.96
2023-05-04T04:24:47.031Z,5.98
2023-05-04T04:25:47.192Z,6.00
2023-05-04T04:26:47.044Z,5.98
2023-05-04T04:27:47.852Z,5.98
2023-05-04T04:28:46.950Z,5.98
2023-05-04T04:29:47.176Z,6.00
2023-05-04T04:30:46.912Z,6.01
2023-05-04T04:31:47.067Z,6.00
2023-05-04T04:32:47.065Z,6.00
2023-05-04T04:33:46.997Z,5.98
2023-05-04T04:34:47.042Z,6.01
2023-05-04T04:35:46.874Z,6.00
2023-05-04T04:36:47.002Z,6.03
2023-05-04T04:37:46.957Z,6.03
2023-05-04T04:38:46.841Z,6.01
2023-05-04T04:39:47.189Z,6.03
2023-05-04T04:40:46.805Z,6.03
2023-05-04T04:41:46.935Z,6.03
2023-05-04T04:42:46.812Z,6.04
2023-05-04T04:43:46.761Z,6.04
2023-05-04T04:44:46.795Z,6.04
2023-05-04T04:45:46.728Z,6.04
2023-05-04T04:46:47.517Z,6.04
2023-05-04T04:47:46.723Z,6.06
2023-05-04T04:48:46.740Z,6.09
2023-05-04T04:49:46.688Z,6.07
2023-05-04T04:50:46.683Z,6.09
2023-05-04T04:51:46.889Z,6.10
2023-05-04T04:52:46.749Z,6.13
2023-05-04T04:53:46.905Z,6.13
2023-05-04T04:54:46.697Z,6.13
2023-05-04T04:55:46.790Z,6.13
2023-05-04T04:56:46.803Z,6.14
2023-05-04T04:57:46.659Z,6.13
2023-05-04T04:58:46.610Z,6.18
2023-05-04T04:59:46.611Z,6.14
2023-05-04T05:00:46.653Z,6.16
2023-05-04T05:01:46.792Z,6.18
2023-05-04T05:02:46.747Z,6.19
2023-05-04T05:03:46.773Z,6.19
2023-05-04T05:04:46.575Z,6.21
2023-05-04T05:05:46.584Z,6.22
2023-05-04T05:06:46.740Z,6.25
2023-05-04T05:07:46.550Z,6.26
2023-05-04T05:08:46.507Z,6.29
2023-05-04T05:09:47.130Z,6.33
2023-05-04T05:10:46.570Z,6.33
2023-05-04T05:11:46.676Z,6.36
2023-05-04T05:12:46.555Z,6.41
2023-05-04T05:13:46.467Z,6.44
2023-05-04T05:14:46.654Z,6.48
2023-05-04T05:15:46.550Z,6.53
2023-05-04T05:16:46.556Z,6.54
2023-05-04T05:17:46.497Z,6.59
2023-05-04T05:18:46.465Z,6.63
2023-05-04T05:19:46.421Z,6.69
2023-05-04T05:20:46.427Z,6.76
2023-05-04T05:21:46.377Z,6.84
2023-05-04T05:22:46.473Z,6.95
2023-05-04T05:23:46.660Z,7.01
2023-05-04T05:24:46.566Z,7.09
2023-05-04T05:25:46.828Z,7.09
2023-05-04T05:26:46.540Z,7.23
2023-05-04T05:27:46.543Z,7.35
2023-05-04T05:28:46.557Z,7.42
2023-05-04T05:29:46.479Z,7.50
2023-05-04T05:30:46.388Z,7.56
2023-05-04T05:31:46.352Z,7.62
2023-05-04T05:32:48.397Z,7.66
2023-05-04T05:33:46.339Z,7.71
2023-05-04T05:34:46.291Z,7.74
2023-05-04T05:35:46.223Z,7.81
2023-05-04T05:36:46.331Z,7.85
2023-05-04T05:37:46.493Z,7.94
2023-05-04T05:38:47.790Z,8.00
2023-05-04T05:39:46.232Z,8.04
2023-05-04T05:40:46.193Z,8.11
2023-05-04T05:41:46.229Z,8.12
2023-05-04T05:42:46.193Z,8.17
2023-05-04T05:43:46.302Z,8.22
2023-05-04T05:44:46.236Z,8.25
2023-05-04T05:45:46.380Z,8.29
2023-05-04T05:46:46.250Z,8.35
2023-05-04T05:47:46.195Z,8.44
2023-05-04T05:48:46.131Z,8.50
2023-05-04T05:49:46.537Z,8.54
2023-05-04T05:50:46.139Z,8.58
2023-05-04T05:51:46.247Z,8.63
2023-05-04T05:52:46.095Z,8.69
2023-05-04T05:53:46.039Z,8.75
2023-05-04T05:54:46.152Z,8.81
2023-05-04T05:55:46.035Z,8.86
2023-05-04T05:56:46.097Z,8.93
2023-05-04T05:57:46.031Z,8.97
2023-05-04T05:58:46.034Z,9.01
2023-05-04T05:59:46.068Z,9.04
2023-05-04T06:00:46.218Z,9.10
2023-05-04T06:01:45.995Z,9.15
2023-05-04T06:02:46.116Z,9.21
2023-05-04T06:03:46.163Z,9.25
2023-05-04T06:04:46.002Z,9.30
2023-05-04T06:05:45.923Z,9.35
2023-05-04T06:06:46.273Z,9.42
2023-05-04T06:07:45.919Z,9.48
2023-05-04T06:08:46.121Z,9.52
2023-05-04T06:09:46.086Z,9.56
2023-05-04T06:10:46.131Z,9.58
2023-05-04T06:11:45.909Z,9.64
2023-05-04T06:12:46.334Z,9.70
2023-05-04T06:13:45.961Z,9.71
2023-05-04T06:14:46.104Z,9.78
2023-05-04T06:15:45.854Z,9.83
2023-05-04T06:16:45.879Z,9.86
2023-05-04T06:17:45.993Z,9.93
2023-05-04T06:18:46.032Z,9.96
2023-05-04T06:19:46.769Z,10.03
2023-05-04T06:20:45.997Z,10.09
2023-05-04T06:21:45.880Z,10.18
2023-05-04T06:22:45.771Z,10.21
2023-05-04T06:23:45.892Z,10.30
2023-05-04T06:24:45.816Z,10.36
2023-05-04T06:25:45.751Z,10.43
2023-05-04T06:26:45.868Z,10.53
2023-05-04T06:27:45.789Z,10.59
2023-05-04T06:28:45.753Z,10.66
2023-05-04T06:29:45.728Z,10.73
2023-05-04T06:30:45.794Z,10.78
2023-05-04T06:31:47.510Z,10.83
2023-05-04T06:32:45.701Z,10.88
2023-05-04T06:33:45.734Z,10.86
2023-05-04T06:34:45.895Z,10.86
2023-05-04T06:35:45.926Z,10.91
2023-05-04T06:36:45.967Z,10.95
2023-05-04T06:37:45.625Z,10.96
2023-05-04T06:38:45.635Z,11.01
2023-05-04T06:39:45.684Z,11.09
2023-05-04T06:40:45.786Z,11.13
2023-05-04T06:41:45.597Z,11.20
2023-05-04T06:42:45.721Z,11.21
2023-05-04T06:43:45.607Z,11.24
2023-05-04T06:44:45.645Z,11.28
2023-05-04T06:45:45.559Z,11.32
2023-05-04T06:46:45.790Z,11.39
2023-05-04T06:47:45.601Z,11.46
2023-05-04T06:48:45.529Z,11.46
2023-05-04T06:49:45.681Z,11.52
2023-05-04T06:50:45.694Z,11.59
2023-05-04T06:51:45.553Z,11.68
2023-05-04T06:52:45.628Z,11.77
2023-05-04T06:53:45.697Z,11.80
2023-05-04T06:54:45.795Z,11.87
2023-05-04T06:55:45.527Z,11.93
2023-05-04T06:56:45.426Z,11.99
2023-05-04T06:57:45.421Z,12.05
2023-05-04T06:58:45.545Z,12.12
2023-05-04T06:59:45.390Z,12.20
2023-05-04T07:00:45.528Z,12.30
2023-05-04T07:01:45.504Z,12.39
2023-05-04T07:02:45.551Z,12.45
2023-05-04T07:03:45.442Z,12.54
2023-05-04T07:04:45.528Z,12.66
2023-05-04T07:05:45.371Z,12.75
2023-05-04T07:06:45.351Z,12.87
2023-05-04T07:07:45.308Z,12.96
2023-05-04T07:08:45.335Z,13.09
2023-05-04T07:09:45.284Z,13.15
2023-05-04T07:10:45.353Z,13.25
2023-05-04T07:11:45.619Z,13.36
2023-05-04T07:12:45.538Z,13.44
2023-05-04T07:13:45.412Z,13.52
2023-05-04T07:14:45.679Z,13.58
2023-05-04T07:15:45.532Z,13.51
2023-05-04T07:16:46.370Z,13.58
2023-05-04T07:17:45.394Z,13.69
2023-05-04T07:18:45.395Z,13.81
2023-05-04T07:19:45.337Z,13.96
2023-05-04T07:20:45.204Z,14.14
2023-05-04T07:21:45.320Z,14.24
2023-05-04T07:22:45.428Z,14.34
2023-05-04T07:23:45.209Z,14.32
2023-05-04T07:24:45.250Z,14.32
2023-05-04T07:25:45.178Z,14.39
2023-05-04T07:26:45.263Z,14.50
2023-05-04T07:27:45.300Z,14.61
2023-05-04T07:28:45.089Z,14.69
2023-05-04T07:29:45.128Z,14.80
2023-05-04T07:30:45.212Z,14.90
2023-05-04T07:31:45.101Z,14.95
2023-05-04T07:32:45.308Z,15.03
2023-05-04T07:33:45.248Z,15.20
2023-05-04T07:34:46.499Z,15.30
2023-05-04T07:35:45.020Z,15.42
2023-05-04T07:36:45.208Z,15.41
2023-05-04T07:37:45.017Z,15.26
2023-05-04T07:38:45.339Z,15.38
2023-05-04T07:39:45.013Z,15.52
2023-05-04T07:40:45.169Z,15.49
2023-05-04T07:41:45.901Z,15.57
2023-05-04T07:42:45.100Z,15.70
2023-05-04T07:43:44.965Z,15.88
2023-05-04T07:44:44.959Z,16.03
2023-05-04T07:45:45.380Z,16.16
2023-05-04T07:46:45.070Z,16.11
2023-05-04T07:47:44.918Z,15.99
2023-05-04T07:48:45.190Z,16.01
2023-05-04T07:49:45.107Z,16.20
2023-05-04T07:50:45.035Z,16.30
2023-05-04T07:51:45.128Z,16.49
2023-05-04T07:52:45.017Z,16.68
2023-05-04T07:53:44.848Z,16.67
2023-05-04T07:54:44.898Z,16.74
2023-05-04T07:55:44.830Z,17.00
2023-05-04T07:56:44.828Z,17.08
2023-05-04T07:57:44.764Z,17.20
2023-05-04T07:58:44.869Z,17.50
2023-05-04T07:59:44.928Z,17.70
2023-05-04T08:00:48.310Z,17.87
2023-05-04T08:01:45.035Z,18.04
2023-05-04T08:02:44.904Z,18.17
2023-05-04T08:03:44.888Z,18.33
2023-05-04T08:04:44.792Z,18.44
2023-05-04T08:05:44.740Z,18.19
2023-05-04T08:06:45.317Z,18.09
2023-05-04T08:07:44.766Z,17.97
2023-05-04T08:08:44.873Z,17.99
2023-05-04T08:09:44.816Z,18.13
2023-05-04T08:10:44.929Z,18.31
2023-05-04T08:11:44.792Z,18.55
2023-05-04T08:12:44.769Z,18.65
2023-05-04T08:13:44.923Z,18.84
2023-05-04T08:14:44.657Z,18.91
2023-05-04T08:15:44.637Z,19.14
2023-05-04T08:16:44.765Z,19.46
2023-05-04T08:17:44.678Z,19.29
2023-05-04T08:18:44.644Z,19.39
2023-05-04T08:19:44.718Z,19.42
2023-05-04T08:20:44.741Z,18.28
2023-05-04T08:21:44.781Z,18.18
2023-05-04T08:22:44.770Z,18.40
2023-05-04T08:23:44.556Z,18.64
2023-05-04T08:24:44.772Z,18.94
2023-05-04T08:25:44.724Z,19.08
2023-05-04T08:26:49.612Z,19.33
2023-05-04T08:27:44.541Z,19.39
2023-05-04T08:28:44.504Z,19.55
2023-05-04T08:29:44.473Z,19.54
2023-05-04T08:30:44.620Z,19.68
2023-05-04T08:31:44.490Z,20.02
2023-05-04T08:32:44.525Z,20.16
2023-05-04T08:33:44.454Z,19.29
2023-05-04T08:34:44.469Z,19.42
2023-05-04T08:35:44.420Z,19.75
2023-05-04T08:36:44.454Z,19.95
2023-05-04T08:37:44.391Z,19.98
2023-05-04T08:38:44.413Z,20.18
2023-05-04T08:39:44.406Z,20.46
2023-05-04T08:40:44.386Z,20.59
2023-05-04T08:41:44.370Z,20.71
2023-05-04T08:42:44.423Z,20.87
2023-05-04T08:43:44.376Z,21.09
2023-05-04T08:44:44.361Z,20.96
2023-05-04T08:45:44.309Z,20.31
2023-05-04T08:46:44.334Z,20.18
2023-05-04T08:47:44.665Z,20.51
2023-05-04T08:48:44.316Z,20.86
2023-05-04T08:49:44.354Z,21.11
2023-05-04T08:50:44.298Z,21.36
2023-05-04T08:51:44.315Z,21.54
2023-05-04T08:52:44.398Z,21.79
2023-05-04T08:53:44.274Z,21.92
2023-05-04T08:54:44.394Z,22.02
2023-05-04T08:55:44.233Z,22.09
2023-05-04T08:56:44.354Z,22.01
2023-05-04T08:57:44.260Z,21.90
2023-05-04T08:58:44.238Z,21.71
2023-05-04T08:59:44.195Z,21.76
2023-05-04T09:00:44.312Z,21.88
2023-05-04T09:01:44.294Z,22.04
2023-05-04T09:02:44.277Z,22.19
2023-05-04T09:03:44.310Z,22.01
2023-05-04T09:04:44.167Z,22.19
2023-05-04T09:05:44.457Z,22.23
2023-05-04T09:06:44.193Z,22.17
2023-05-04T09:07:44.377Z,22.14
2023-05-04T09:08:44.234Z,21.99
2023-05-04T09:09:44.224Z,21.99
2023-05-04T09:10:44.170Z,21.81
2023-05-04T09:11:44.077Z,21.79
2023-05-04T09:12:44.189Z,21.82
2023-05-04T09:13:44.072Z,21.72
2023-05-04T09:14:44.071Z,21.51
2023-05-04T09:15:44.040Z,21.81
2023-05-04T09:16:44.130Z,22.13
2023-05-04T09:17:57.054Z,22.34
2023-05-04T09:18:44.430Z,22.60
2023-05-04T09:19:44.129Z,22.80
2023-05-04T09:20:44.290Z,22.75
2023-05-04T09:21:44.147Z,23.09
2023-05-04T09:22:44.479Z,23.47
2023-05-04T09:23:44.118Z,23.76
2023-05-04T09:24:44.043Z,23.94
2023-05-04T09:25:43.934Z,24.10
2023-05-04T09:26:43.992Z,24.39
2023-05-04T09:27:43.993Z,24.59
2023-05-04T09:28:44.042Z,24.47
2023-05-04T09:29:43.865Z,24.32
2023-05-04T09:30:44.039Z,23.40
2023-05-04T09:31:43.970Z,22.69
2023-05-04T09:32:44.049Z,23.12
2023-05-04T09:33:43.845Z,23.38
2023-05-04T09:34:43.856Z,22.71
2023-05-04T09:35:43.915Z,22.50
2023-05-04T09:36:43.924Z,23.02
2023-05-04T09:37:43.914Z,23.80
2023-05-04T09:38:43.823Z,24.49
2023-05-04T09:39:43.862Z,24.60
2023-05-04T09:40:43.866Z,24.42
2023-05-04T09:41:43.868Z,24.56
2023-05-04T09:42:43.791Z,24.98
2023-05-04T09:43:44.000Z,25.32
2023-05-04T09:44:43.787Z,25.56
2023-05-04T09:45:43.845Z,25.56
2023-05-04T09:46:43.983Z,25.43
2023-05-04T09:47:43.724Z,25.50
2023-05-04T09:48:43.718Z,25.77
2023-05-04T09:49:43.817Z,25.65
2023-05-04T09:50:43.991Z,25.75
2023-05-04T09:51:43.815Z,25.93
2023-05-04T09:52:43.711Z,26.29
2023-05-04T09:53:43.818Z,26.22
2023-05-04T09:54:43.951Z,25.87
2023-05-04T09:55:43.849Z,25.61
2023-05-04T09:56:43.671Z,25.59
2023-05-04T09:57:43.689Z,25.79
2023-05-04T09:58:43.744Z,26.06
2023-05-04T09:59:43.636Z,26.27
2023-05-04T10:00:43.900Z,26.35
2023-05-04T10:01:44.889Z,25.72
2023-05-04T10:02:44.099Z,25.05
2023-05-04T10:03:43.629Z,24.76
2023-05-04T10:04:43.623Z,24.13
2023-05-04T10:05:43.615Z,24.31
2023-05-04T10:06:43.836Z,24.26
2023-05-04T10:07:43.587Z,24.05
2023-05-04T10:08:43.590Z,24.61
2023-05-04T10:09:43.755Z,25.01
2023-05-04T10:10:43.667Z,24.87
2023-05-04T10:11:44.038Z,25.17
2023-05-04T10:12:43.591Z,25.69
2023-05-04T10:13:43.589Z,26.15
2023-05-04T10:14:43.465Z,26.24
2023-05-04T10:15:43.568Z,25.42
2023-05-04T10:16:43.499Z,25.15
2023-05-04T10:17:43.513Z,25.37
2023-05-04T10:18:43.575Z,25.52
2023-05-04T10:19:43.567Z,25.67
2023-05-04T10:20:43.419Z,25.62
2023-05-04T10:21:43.493Z,25.62
2023-05-04T10:22:43.445Z,25.65
2023-05-04T10:23:43.486Z,25.82
2023-05-04T10:24:43.411Z,26.12
2023-05-04T10:25:43.410Z,25.69
2023-05-04T10:26:43.614Z,25.68
2023-05-04T10:27:43.480Z,25.83
2023-05-04T10:28:43.339Z,26.04
2023-05-04T10:29:43.640Z,26.37
2023-05-04T10:30:43.535Z,26.62
2023-05-04T10:31:43.763Z,26.83
2023-05-04T10:32:43.337Z,27.13
2023-05-04T10:33:43.426Z,26.99
2023-05-04T10:34:43.373Z,26.64
2023-05-04T10:35:43.822Z,26.72
2023-05-04T10:36:43.425Z,26.65
2023-05-04T10:37:43.263Z,26.28
2023-05-04T10:38:43.425Z,26.24
2023-05-04T10:39:43.263Z,26.06
2023-05-04T10:40:43.288Z,26.47
2023-05-04T10:41:43.251Z,26.15
2023-05-04T10:42:43.336Z,25.82
2023-05-04T10:43:43.238Z,26.15
2023-05-04T10:44:43.186Z,26.37
2023-05-04T10:45:43.383Z,25.89
2023-05-04T10:46:43.286Z,25.71
2023-05-04T10:47:43.216Z,25.28
2023-05-04T10:48:43.207Z,25.43
2023-05-04T10:49:43.258Z,25.71
2023-05-04T10:50:43.174Z,25.80
2023-05-04T10:51:49.460Z,26.20
2023-05-04T10:52:43.116Z,26.44
2023-05-04T10:53:43.173Z,26.44
2023-05-04T10:54:43.158Z,26.65
2023-05-04T10:55:43.143Z,26.86
2023-05-04T10:56:43.139Z,27.06
2023-05-04T10:57:43.134Z,27.42
2023-05-04T10:58:43.258Z,27.43
2023-05-04T10:59:43.137Z,27.21
2023-05-04T11:00:43.191Z,27.26
2023-05-04T11:01:43.142Z,27.39
2023-05-04T11:02:43.276Z,27.01
2023-05-04T11:03:43.259Z,25.83
2023-05-04T11:04:43.036Z,26.05
2023-05-04T11:05:43.386Z,26.18
2023-05-04T11:06:43.242Z,26.37
2023-05-04T11:07:43.042Z,26.44
2023-05-04T11:08:43.294Z,26.24
2023-05-04T11:09:43.050Z,26.12
2023-05-04T11:10:43.150Z,25.97
2023-05-04T11:11:43.008Z,25.99
2023-05-04T11:12:43.297Z,25.91
2023-05-04T11:13:42.964Z,25.79
2023-05-04T11:14:43.287Z,25.72
2023-05-04T11:15:42.962Z,26.25
2023-05-04T11:16:43.064Z,26.59
2023-05-04T11:17:43.268Z,26.52
2023-05-04T11:18:43.233Z,26.28
2023-05-04T11:19:43.095Z,26.08
2023-05-04T11:20:43.007Z,25.86
2023-05-04T11:21:42.951Z,26.24
2023-05-04T11:22:42.849Z,26.20
2023-05-04T11:23:42.846Z,25.67
2023-05-04T11:24:43.032Z,25.22
2023-05-04T11:25:42.864Z,25.47
2023-05-04T11:26:42.883Z,25.49
2023-05-04T11:27:43.172Z,25.69
2023-05-04T11:28:42.850Z,25.49
2023-05-04T11:29:42.895Z,25.10
2023-05-04T11:30:42.852Z,24.97
2023-05-04T11:31:43.001Z,25.13
2023-05-04T11:32:42.888Z,25.07
2023-05-04T11:33:43.072Z,25.37
2023-05-04T11:34:42.844Z,25.61
2023-05-04T11:35:42.818Z,25.89
2023-05-04T11:36:42.962Z,25.98
2023-05-04T11:37:42.766Z,25.27
2023-05-04T11:38:42.945Z,25.19
2023-05-04T11:39:42.776Z,25.52
2023-05-04T11:40:43.007Z,25.50
2023-05-04T11:41:42.926Z,24.69
2023-05-04T11:42:42.886Z,24.59
2023-05-04T11:43:42.866Z,25.05
2023-05-04T11:44:42.803Z,25.27
2023-05-04T11:45:42.700Z,25.65
2023-05-04T11:46:42.759Z,25.91
2023-05-04T11:47:42.695Z,26.18
2023-05-04T11:48:42.936Z,26.40
2023-05-04T11:49:42.730Z,26.22
2023-05-04T11:50:42.723Z,25.94
2023-05-04T11:51:42.655Z,25.69
2023-05-04T11:52:42.645Z,25.46
2023-05-04T11:53:42.734Z,25.87
2023-05-04T11:54:42.851Z,26.42
2023-05-04T11:55:42.678Z,26.36
2023-05-04T11:56:42.671Z,26.44
2023-05-04T11:57:42.761Z,25.98
2023-05-04T11:58:42.599Z,25.86
2023-05-04T11:59:42.649Z,25.99
2023-05-04T12:00:42.585Z,26.39
2023-05-04T12:01:42.862Z,26.59
2023-05-04T12:02:42.683Z,26.81
2023-05-04T12:03:52.324Z,26.77
2023-05-04T12:04:42.504Z,26.74
2023-05-04T12:05:42.524Z,26.09
2023-05-04T12:06:42.557Z,25.74
2023-05-04T12:07:42.530Z,25.84
2023-05-04T12:08:42.661Z,26.11
2023-05-04T12:09:42.495Z,26.35
2023-05-04T12:10:42.419Z,26.11
2023-05-04T12:11:42.531Z,26.04
2023-05-04T12:12:42.592Z,26.29
2023-05-04T12:13:42.531Z,26.57
2023-05-04T12:14:42.386Z,26.81
2023-05-04T12:15:42.374Z,26.91
2023-05-04T12:16:42.474Z,26.64
2023-05-04T12:17:42.420Z,26.55
2023-05-04T12:18:42.628Z,26.73
2023-05-04T12:19:42.355Z,26.62
2023-05-04T12:20:42.404Z,26.54
2023-05-04T12:21:42.336Z,26.39
2023-05-04T12:22:42.514Z,26.36
2023-05-04T12:23:42.357Z,26.21
2023-05-04T12:24:42.484Z,26.35
2023-05-04T12:25:54.843Z,26.36
2023-05-04T12:26:42.274Z,26.05
2023-05-04T12:27:42.527Z,25.65
2023-05-04T12:28:42.280Z,25.74
2023-05-04T12:29:42.337Z,25.75
2023-05-04T12:30:42.477Z,25.83
2023-05-04T12:31:42.361Z,25.75
2023-05-04T12:32:42.522Z,25.91
2023-05-04T12:33:42.307Z,26.06
2023-05-04T12:34:42.227Z,26.42
2023-05-04T12:35:42.228Z,26.68
2023-05-04T12:36:42.392Z,26.86
2023-05-04T12:37:42.180Z,26.58
2023-05-04T12:38:42.182Z,26.24
2023-05-04T12:39:42.422Z,26.27
2023-05-04T12:40:42.307Z,25.91
2023-05-04T12:41:42.510Z,26.04
2023-05-04T12:42:42.146Z,26.09
2023-05-04T12:43:42.302Z,26.06
2023-05-04T12:44:42.250Z,26.20
2023-05-04T12:45:42.268Z,26.06
2023-05-04T12:46:42.276Z,26.05
2023-05-04T12:47:42.093Z,25.67
2023-05-04T12:48:42.111Z,25.56
2023-05-04T12:49:42.190Z,25.74
2023-05-04T12:50:42.193Z,25.83
2023-05-04T12:51:42.051Z,25.72
2023-05-04T12:52:42.311Z,25.61
2023-05-04T12:53:42.069Z,25.27
2023-05-04T12:54:42.057Z,25.34
2023-05-04T12:55:42.005Z,25.62
2023-05-04T12:56:42.191Z,25.75
2023-05-04T12:57:42.006Z,26.04
2023-05-04T12:58:42.036Z,26.09
2023-05-04T12:59:42.078Z,26.36
2023-05-04T13:00:42.572Z,26.43
2023-05-04T13:01:42.080Z,26.32
2023-05-04T13:02:42.045Z,25.97
2023-05-04T13:03:42.437Z,26.05
2023-05-04T13:04:42.244Z,26.22
2023-05-04T13:05:41.972Z,26.37